createdAt,value
2022-07-29T00:01:44.145Z,21.10
2022-07-29T00:04:14.619Z,21.20
2022-07-29T00:06:43.599Z,21.10
2022-07-29T00:09:11.932Z,21.00
2022-07-29T00:11:40.282Z,20.90
2022-07-29T00:14:08.617Z,20.80
2022-07-29T00:16:37.396Z,20.80
2022-07-29T00:19:05.855Z,20.80
2022-07-29T00:21:37.477Z,20.70
2022-07-29T00:24:06.377Z,20.60
2022-07-29T00:26:34.754Z,20.60
2022-07-29T00:29:33.027Z,20.50
2022-07-29T00:31:54.929Z,20.50
2022-07-29T00:34:40.698Z,20.50
2022-07-29T00:37:10.467Z,20.40
2022-07-29T00:39:38.778Z,20.40
2022-07-29T00:42:07.969Z,20.30
2022-07-29T00:44:40.124Z,20.30
2022-07-29T00:47:09.930Z,20.30
2022-07-29T00:49:38.670Z,20.30
2022-07-29T00:52:10.553Z,20.30
2022-07-29T00:54:44.809Z,20.30
2022-07-29T00:57:14.208Z,20.30
2022-07-29T00:59:43.577Z,20.30
2022-07-29T01:02:12.166Z,20.30
2022-07-29T01:04:41.122Z,20.30
2022-07-29T01:07:11.732Z,20.20
2022-07-29T01:09:45.664Z,20.30
2022-07-29T01:12:17.099Z,20.30
2022-07-29T01:14:46.432Z,20.30
2022-07-29T01:17:22.790Z,20.20
2022-07-29T01:20:00.292Z,20.30
2022-07-29T01:22:43.826Z,20.30
2022-07-29T01:25:45.708Z,20.30
2022-07-29T01:29:05.357Z,20.30
2022-07-29T01:31:58.541Z,17.70
2022-07-29T01:34:37.294Z,20.20
2022-07-29T01:37:15.092Z,20.10
2022-07-29T01:39:46.729Z,20.10
2022-07-29T01:42:25.872Z,20.10
2022-07-29T01:45:01.585Z,20.00
2022-07-29T01:47:40.933Z,20.00
2022-07-29T01:50:14.802Z,20.00
2022-07-29T01:52:51.630Z,19.90
2022-07-29T01:55:22.400Z,19.90
2022-07-29T01:57:51.741Z,19.90
2022-07-29T02:00:22.396Z,19.80
2022-07-29T02:05:25.246Z,19.80
2022-07-29T02:07:56.931Z,19.80
2022-07-29T02:10:31.817Z,19.70
2022-07-29T02:13:00.617Z,19.80
2022-07-29T02:15:34.589Z,19.70
2022-07-29T02:18:09.198Z,19.70
2022-07-29T02:20:39.824Z,19.60
2022-07-29T02:23:11.680Z,19.60
2022-07-29T02:25:40.841Z,19.50
2022-07-29T02:28:10.557Z,19.50
2022-07-29T02:30:45.210Z,19.50
2022-07-29T02:33:17.678Z,19.40
2022-07-29T02:35:49.638Z,19.40
2022-07-29T02:38:36.566Z,19.40
2022-07-29T02:41:12.303Z,19.30
2022-07-29T02:43:41.440Z,19.40
2022-07-29T02:46:29.088Z,19.30
2022-07-29T02:49:06.278Z,19.30
2022-07-29T02:51:44.965Z,19.30
2022-07-29T02:54:28.223Z,19.20
2022-07-29T02:57:00.080Z,19.20
2022-07-29T02:59:32.969Z,19.20
2022-07-29T03:02:04.252Z,19.10
2022-07-29T03:04:34.341Z,19.10
2022-07-29T03:07:03.872Z,19.10
2022-07-29T03:09:32.754Z,19.00
2022-07-29T03:12:02.230Z,18.90
2022-07-29T03:14:32.362Z,19.00
2022-07-29T03:17:02.816Z,18.90
2022-07-29T03:19:31.297Z,18.90
2022-07-29T03:22:00.451Z,18.80
2022-07-29T03:24:35.207Z,18.80
2022-07-29T03:27:04.924Z,18.70
2022-07-29T03:29:34.782Z,18.70
2022-07-29T03:32:08.651Z,18.60
2022-07-29T03:34:39.128Z,18.60
2022-07-29T03:37:08.424Z,18.70
2022-07-29T03:39:43.380Z,18.60
2022-07-29T03:42:17.279Z,18.60
2022-07-29T03:44:49.429Z,18.60
2022-07-29T03:47:43.438Z,18.50
2022-07-29T03:50:16.678Z,18.50
2022-07-29T03:52:45.654Z,18.50
2022-07-29T03:55:14.910Z,18.50
2022-07-29T03:57:43.849Z,18.50
2022-07-29T04:00:13.652Z,18.50
2022-07-29T04:02:47.866Z,18.50
2022-07-29T04:05:17.420Z,18.50
2022-07-29T04:07:46.652Z,18.40
2022-07-29T04:10:16.502Z,18.50
2022-07-29T04:12:45.208Z,18.50
2022-07-29T04:15:13.940Z,18.50
2022-07-29T04:17:43.973Z,18.50
2022-07-29T04:20:14.210Z,18.50
2022-07-29T04:22:42.714Z,18.50
2022-07-29T04:25:11.179Z,16.50
2022-07-29T04:27:59.667Z,18.40
2022-07-29T04:30:28.392Z,18.40
2022-07-29T04:32:58.151Z,18.40
2022-07-29T04:35:27.028Z,18.50
2022-07-29T04:40:24.057Z,18.40
2022-07-29T04:42:52.530Z,18.50
2022-07-29T04:45:23.192Z,18.50
2022-07-29T04:47:51.654Z,18.50
2022-07-29T04:50:21.426Z,18.50
2022-07-29T04:52:49.705Z,18.50
2022-07-29T04:55:18.049Z,18.50
2022-07-29T04:57:46.417Z,18.60
2022-07-29T05:00:15.751Z,18.50
2022-07-29T05:02:44.182Z,18.60
2022-07-29T05:05:12.543Z,18.60
2022-07-29T05:07:44.761Z,18.70
2022-07-29T05:10:13.732Z,18.70
2022-07-29T05:12:42.077Z,18.70
2022-07-29T05:15:12.157Z,18.70
2022-07-29T05:17:40.828Z,18.80
2022-07-29T05:20:10.818Z,18.80
2022-07-29T05:22:39.288Z,18.80
2022-07-29T05:25:10.657Z,18.80
2022-07-29T05:27:39.016Z,19.00
2022-07-29T05:30:09.156Z,18.90
2022-07-29T05:32:37.548Z,19.00
2022-07-29T05:35:06.858Z,19.00
2022-07-29T05:37:35.833Z,19.10
2022-07-29T05:40:04.716Z,19.10
2022-07-29T05:42:34.909Z,19.20
2022-07-29T05:45:04.229Z,19.20
2022-07-29T05:47:32.693Z,19.20
2022-07-29T05:50:01.305Z,19.30
2022-07-29T05:52:29.834Z,19.40
2022-07-29T05:54:58.427Z,19.50
2022-07-29T05:57:26.943Z,19.50
2022-07-29T05:59:56.567Z,19.50
2022-07-29T06:02:24.917Z,19.60
2022-07-29T06:04:53.266Z,19.60
2022-07-29T06:07:21.658Z,19.70
2022-07-29T06:09:49.928Z,19.70
2022-07-29T06:12:18.185Z,19.80
2022-07-29T06:14:48.158Z,19.90
2022-07-29T06:17:20.626Z,19.90
2022-07-29T06:19:48.945Z,20.00
2022-07-29T06:22:18.122Z,20.20
2022-07-29T06:24:46.453Z,20.20
2022-07-29T06:27:14.910Z,20.40
2022-07-29T06:29:43.259Z,20.40
2022-07-29T06:32:11.624Z,20.70
2022-07-29T06:34:41.367Z,20.70
2022-07-29T06:37:15.423Z,20.80
2022-07-29T06:39:44.163Z,21.00
2022-07-29T06:42:12.584Z,21.00
2022-07-29T06:44:40.821Z,18.50
2022-07-29T06:47:09.327Z,21.20
2022-07-29T06:49:37.635Z,21.20
2022-07-29T06:52:07.884Z,21.30
2022-07-29T06:54:36.227Z,21.40
2022-07-29T06:57:04.601Z,21.40
2022-07-29T06:59:35.768Z,21.50
2022-07-29T07:02:04.542Z,21.60
2022-07-29T07:04:33.180Z,21.70
2022-07-29T07:07:01.589Z,21.70
2022-07-29T07:09:40.522Z,21.80
2022-07-29T07:12:09.859Z,21.90
2022-07-29T07:14:38.182Z,21.90
2022-07-29T07:17:07.999Z,22.00
2022-07-29T07:19:36.407Z,22.10
2022-07-29T07:22:04.852Z,22.10
2022-07-29T07:24:34.523Z,22.20
2022-07-29T07:27:02.813Z,22.20
2022-07-29T07:29:31.222Z,22.30
2022-07-29T07:32:01.049Z,22.50
2022-07-29T07:34:30.979Z,22.50
2022-07-29T07:36:59.277Z,22.70
2022-07-29T07:39:27.959Z,22.90
2022-07-29T07:41:57.628Z,23.20
2022-07-29T07:44:26.063Z,23.50
2022-07-29T07:46:54.835Z,24.00
2022-07-29T07:49:23.278Z,24.00
2022-07-29T07:51:51.853Z,24.10
2022-07-29T07:54:20.737Z,24.00
2022-07-29T07:56:53.006Z,24.00
2022-07-29T07:59:23.103Z,24.10
2022-07-29T08:01:56.364Z,24.10
2022-07-29T08:04:28.449Z,24.10
2022-07-29T08:06:58.545Z,24.20
2022-07-29T08:09:30.281Z,24.40
2022-07-29T08:11:59.973Z,24.60
2022-07-29T08:14:29.906Z,24.80
2022-07-29T08:16:58.239Z,24.90
2022-07-29T08:19:26.627Z,25.00
2022-07-29T08:21:55.522Z,25.20
2022-07-29T08:24:42.008Z,25.40
2022-07-29T08:27:33.528Z,24.70
2022-07-29T08:30:00.180Z,26.00
2022-07-29T08:32:51.876Z,26.10
2022-07-29T08:35:17.980Z,26.10
2022-07-29T08:37:46.276Z,26.10
2022-07-29T08:40:15.561Z,26.10
2022-07-29T08:42:43.883Z,26.30
2022-07-29T08:45:13.986Z,26.40
2022-07-29T08:47:42.520Z,26.60
2022-07-29T08:50:12.204Z,26.80
2022-07-29T08:52:43.004Z,27.00
2022-07-29T08:55:12.280Z,27.30
2022-07-29T08:57:51.179Z,27.50
2022-07-29T09:00:26.350Z,27.50
2022-07-29T09:03:00.215Z,27.40
2022-07-29T09:05:29.572Z,27.30
2022-07-29T09:07:58.328Z,27.30
2022-07-29T09:10:26.928Z,27.30
2022-07-29T09:12:57.321Z,27.30
2022-07-29T09:15:27.409Z,27.30
2022-07-29T09:17:56.323Z,27.20
2022-07-29T09:20:25.353Z,27.20
2022-07-29T09:22:54.892Z,27.30
2022-07-29T09:25:36.416Z,27.50
2022-07-29T09:28:09.729Z,28.00
2022-07-29T09:30:53.029Z,28.30
2022-07-29T09:33:22.432Z,28.60
2022-07-29T09:36:02.236Z,28.70
2022-07-29T09:38:32.652Z,28.70
2022-07-29T09:41:05.849Z,28.80
2022-07-29T09:43:35.652Z,28.80
2022-07-29T09:46:14.015Z,28.80
2022-07-29T09:48:42.765Z,28.90
2022-07-29T09:51:24.149Z,29.00
2022-07-29T09:53:55.348Z,29.20
2022-07-29T09:56:41.159Z,29.90
2022-07-29T09:59:12.253Z,29.90
2022-07-29T10:01:42.034Z,30.30
2022-07-29T10:04:10.564Z,30.70
2022-07-29T10:07:04.231Z,31.10
2022-07-29T10:09:34.182Z,31.60
2022-07-29T10:12:14.656Z,31.60
2022-07-29T10:14:44.596Z,32.10
2022-07-29T10:17:14.393Z,32.40
2022-07-29T10:19:43.341Z,32.70
2022-07-29T10:22:12.881Z,32.80
2022-07-29T10:24:41.973Z,32.70
2022-07-29T10:27:11.222Z,32.30
2022-07-29T10:29:39.525Z,32.10
2022-07-29T10:32:31.479Z,31.80
2022-07-29T10:35:17.705Z,31.30
2022-07-29T10:38:17.320Z,30.30
2022-07-29T10:41:19.542Z,30.00
2022-07-29T10:43:51.418Z,29.90
2022-07-29T10:46:20.851Z,29.70
2022-07-29T10:49:15.179Z,29.90
2022-07-29T10:51:59.794Z,30.40
2022-07-29T10:54:51.533Z,30.40
2022-07-29T10:57:53.926Z,31.00
2022-07-29T11:00:34.399Z,31.50
2022-07-29T11:03:04.820Z,32.10
2022-07-29T11:05:59.627Z,32.40
2022-07-29T11:08:28.944Z,32.60
2022-07-29T11:11:34.902Z,32.90
2022-07-29T11:14:03.416Z,33.20
2022-07-29T11:17:05.842Z,33.50
2022-07-29T11:19:37.208Z,33.80
2022-07-29T11:22:12.373Z,33.90
2022-07-29T11:24:50.249Z,34.20
2022-07-29T11:27:23.043Z,34.50
2022-07-29T11:29:58.533Z,34.70
2022-07-29T11:32:37.089Z,34.80
2022-07-29T11:35:37.179Z,34.70
2022-07-29T11:38:31.942Z,34.30
2022-07-29T11:41:27.407Z,34.10
2022-07-29T11:43:58.429Z,34.00
2022-07-29T11:46:47.984Z,33.90
2022-07-29T11:49:32.207Z,33.90
2022-07-29T11:52:03.692Z,34.00
2022-07-29T11:54:52.524Z,34.10
2022-07-29T11:57:36.709Z,34.50
2022-07-29T12:00:12.706Z,35.10
2022-07-29T12:02:48.654Z,35.40
2022-07-29T12:05:36.384Z,35.20
2022-07-29T12:08:14.598Z,35.40
2022-07-29T12:10:45.280Z,35.50
2022-07-29T12:13:15.733Z,35.70
2022-07-29T12:15:47.379Z,35.90
2022-07-29T12:18:23.956Z,36.10
2022-07-29T12:21:03.275Z,36.40
2022-07-29T12:23:34.281Z,36.70
2022-07-29T12:26:10.937Z,37.00
2022-07-29T12:28:50.790Z,36.90
2022-07-29T12:31:43.988Z,36.60
2022-07-29T12:34:07.709Z,36.50
2022-07-29T12:36:36.205Z,36.70
2022-07-29T12:39:05.180Z,37.00
2022-07-29T12:41:35.621Z,37.20
2022-07-29T12:44:04.540Z,37.00
2022-07-29T12:46:33.059Z,36.80
2022-07-29T12:49:04.049Z,36.40
2022-07-29T12:51:34.805Z,36.10
2022-07-29T12:54:11.237Z,36.00
2022-07-29T12:56:43.554Z,36.00
2022-07-29T12:59:23.220Z,36.00
2022-07-29T13:01:54.348Z,36.20
2022-07-29T13:04:31.408Z,36.50
2022-07-29T13:07:06.917Z,36.80
2022-07-29T13:09:43.902Z,37.00
2022-07-29T13:12:15.375Z,37.20
2022-07-29T13:14:46.137Z,37.20
2022-07-29T13:17:17.122Z,37.00
2022-07-29T13:19:48.451Z,36.60
2022-07-29T13:22:20.285Z,36.30
2022-07-29T13:24:51.262Z,36.30
2022-07-29T13:27:22.770Z,36.60
2022-07-29T13:29:52.317Z,36.70
2022-07-29T13:32:28.392Z,36.30
2022-07-29T13:34:58.359Z,35.80
2022-07-29T13:37:27.220Z,35.40
2022-07-29T13:39:56.834Z,34.70
2022-07-29T13:42:26.960Z,34.20
2022-07-29T13:44:55.316Z,33.90
2022-07-29T13:47:32.342Z,33.70
2022-07-29T13:50:01.978Z,33.30
2022-07-29T13:52:30.810Z,33.10
2022-07-29T13:54:59.247Z,33.00
2022-07-29T13:57:30.832Z,33.00
2022-07-29T13:59:59.413Z,32.80
2022-07-29T14:02:27.892Z,32.60
2022-07-29T14:04:56.792Z,32.50
2022-07-29T14:07:25.287Z,32.30
2022-07-29T14:09:53.715Z,32.20
2022-07-29T14:12:22.179Z,32.20
2022-07-29T14:14:51.885Z,32.10
2022-07-29T14:17:20.359Z,32.10
2022-07-29T14:19:48.854Z,32.10
2022-07-29T14:22:19.596Z,32.00
2022-07-29T14:24:50.735Z,31.90
2022-07-29T14:27:20.064Z,31.90
2022-07-29T14:30:10.232Z,31.80
2022-07-29T14:32:38.585Z,31.80
2022-07-29T14:35:08.765Z,31.80
2022-07-29T14:37:40.181Z,32.00
2022-07-29T14:40:11.249Z,32.00
2022-07-29T14:42:40.303Z,32.00
2022-07-29T14:45:11.685Z,32.00
2022-07-29T14:47:41.339Z,32.00
2022-07-29T14:50:11.470Z,32.00
2022-07-29T14:52:40.155Z,32.20
2022-07-29T14:55:16.487Z,32.30
2022-07-29T14:57:48.657Z,32.50
2022-07-29T15:00:19.303Z,32.60
2022-07-29T15:03:03.315Z,32.90
2022-07-29T15:05:32.146Z,34.00
2022-07-29T15:08:01.428Z,33.60
2022-07-29T15:12:59.268Z,33.80
2022-07-29T15:15:29.103Z,34.10
2022-07-29T15:17:57.395Z,34.00
2022-07-29T15:20:27.996Z,33.80
2022-07-29T15:22:57.380Z,34.10
2022-07-29T15:25:26.313Z,33.40
2022-07-29T15:28:01.237Z,32.90
2022-07-29T15:30:34.276Z,32.80
2022-07-29T15:33:04.135Z,32.80
2022-07-29T15:35:32.621Z,32.70
2022-07-29T15:38:00.946Z,32.60
2022-07-29T15:40:29.583Z,32.50
2022-07-29T15:42:58.250Z,32.30
2022-07-29T15:45:26.680Z,32.40
2022-07-29T15:48:01.831Z,32.70
2022-07-29T15:50:30.163Z,33.00
2022-07-29T15:52:58.487Z,33.00
2022-07-29T15:55:27.184Z,33.40
2022-07-29T15:58:00.310Z,33.40
2022-07-29T16:00:29.227Z,33.40
2022-07-29T16:02:57.634Z,33.70
2022-07-29T16:05:29.551Z,34.20
2022-07-29T16:07:59.639Z,34.30
2022-07-29T16:10:28.123Z,34.10
2022-07-29T16:12:56.451Z,34.20
2022-07-29T16:15:25.033Z,34.80
2022-07-29T16:17:53.336Z,35.40
2022-07-29T16:20:22.393Z,35.80
2022-07-29T16:22:52.442Z,36.20
2022-07-29T16:25:20.952Z,36.70
2022-07-29T16:27:49.292Z,36.60
2022-07-29T16:30:17.625Z,36.40
2022-07-29T16:32:45.916Z,36.40
2022-07-29T16:35:14.248Z,36.00
2022-07-29T16:37:42.563Z,35.40
2022-07-29T16:40:12.753Z,34.80
2022-07-29T16:42:46.897Z,34.20
2022-07-29T16:45:16.446Z,33.00
2022-07-29T16:47:46.511Z,32.50
2022-07-29T16:50:14.918Z,32.70
2022-07-29T16:52:43.260Z,32.60
2022-07-29T16:55:13.015Z,33.10
2022-07-29T16:57:42.665Z,33.60
2022-07-29T17:00:12.734Z,34.00
2022-07-29T17:02:41.164Z,34.10
2022-07-29T17:05:12.223Z,34.10
2022-07-29T17:07:40.894Z,34.20
2022-07-29T17:10:10.950Z,34.30
2022-07-29T17:12:42.035Z,34.50
2022-07-29T17:15:12.886Z,34.40
2022-07-29T17:17:56.414Z,34.00
2022-07-29T17:20:26.675Z,32.70
2022-07-29T17:22:55.369Z,32.70
2022-07-29T17:25:25.001Z,31.50
2022-07-29T17:28:00.591Z,31.00
2022-07-29T17:30:29.756Z,30.60
2022-07-29T17:32:58.154Z,30.30
2022-07-29T17:35:43.820Z,29.90
2022-07-29T17:38:12.183Z,29.50
2022-07-29T17:40:40.506Z,29.20
2022-07-29T17:43:10.273Z,29.00
2022-07-29T17:45:48.771Z,28.80
2022-07-29T17:48:17.617Z,28.60
2022-07-29T17:53:17.016Z,28.40
2022-07-29T17:55:46.261Z,28.20
2022-07-29T17:58:16.696Z,28.10
2022-07-29T18:00:45.388Z,28.00
2022-07-29T18:03:13.793Z,27.90
2022-07-29T18:05:42.733Z,27.70
2022-07-29T18:10:41.310Z,27.50
2022-07-29T18:13:09.708Z,27.40
2022-07-29T18:15:39.432Z,27.30
2022-07-29T18:20:36.878Z,27.10
2022-07-29T18:23:05.189Z,27.00
2022-07-29T18:25:33.900Z,26.90
2022-07-29T18:28:02.365Z,26.90
2022-07-29T18:30:33.710Z,26.80
2022-07-29T18:33:21.428Z,26.70
2022-07-29T18:36:11.282Z,26.70
2022-07-29T18:38:41.113Z,26.60
2022-07-29T18:41:09.520Z,26.50
2022-07-29T18:43:37.844Z,26.40
2022-07-29T18:46:06.660Z,26.40
2022-07-29T18:48:36.850Z,26.40
2022-07-29T18:51:09.198Z,26.30
2022-07-29T18:53:38.482Z,26.20
2022-07-29T18:56:06.820Z,26.20
2022-07-29T18:58:37.047Z,26.10
2022-07-29T19:01:05.468Z,26.00
2022-07-29T19:03:33.836Z,25.90
2022-07-29T19:06:03.495Z,25.90
2022-07-29T19:08:32.757Z,25.80
2022-07-29T19:11:01.116Z,25.60
2022-07-29T19:13:29.593Z,25.60
2022-07-29T19:15:58.023Z,25.60
2022-07-29T19:18:26.467Z,25.40
2022-07-29T19:20:54.768Z,25.30
2022-07-29T19:23:25.655Z,25.20
2022-07-29T19:25:54.249Z,25.20
2022-07-29T19:28:23.112Z,25.10
2022-07-29T19:30:51.859Z,25.10
2022-07-29T19:33:20.864Z,25.00
2022-07-29T19:35:52.951Z,25.00
2022-07-29T19:38:24.670Z,24.80
2022-07-29T19:40:53.086Z,24.80
2022-07-29T19:43:52.093Z,24.80
2022-07-29T19:46:09.843Z,24.80
2022-07-29T19:48:38.276Z,24.70
2022-07-29T19:51:06.706Z,24.60
2022-07-29T19:53:36.357Z,24.50
2022-07-29T19:56:05.296Z,24.50
2022-07-29T19:58:37.435Z,24.50
2022-07-29T20:01:10.377Z,24.30
2022-07-29T20:03:40.668Z,24.30
2022-07-29T20:06:09.109Z,24.20
2022-07-29T20:08:38.797Z,24.20
2022-07-29T20:11:07.747Z,24.10
2022-07-29T20:13:36.116Z,24.00
2022-07-29T20:16:08.068Z,23.90
2022-07-29T20:18:36.995Z,23.80
2022-07-29T20:21:05.517Z,23.80
2022-07-29T20:23:33.979Z,23.60
2022-07-29T20:26:08.714Z,23.50
2022-07-29T20:28:40.181Z,23.40
2022-07-29T20:31:08.758Z,23.20
2022-07-29T20:33:37.153Z,23.20
2022-07-29T20:36:07.076Z,23.10
2022-07-29T20:38:35.448Z,22.90
2022-07-29T20:41:05.311Z,22.90
2022-07-29T20:43:36.060Z,22.80
2022-07-29T20:46:07.369Z,22.80
2022-07-29T20:48:35.736Z,22.80
2022-07-29T20:51:04.209Z,22.70
2022-07-29T20:53:33.719Z,22.70
2022-07-29T20:56:02.076Z,22.60
2022-07-29T20:58:32.604Z,22.60
2022-07-29T21:01:01.038Z,22.50
2022-07-29T21:03:29.357Z,22.50
2022-07-29T21:05:57.708Z,22.40
2022-07-29T21:08:27.528Z,22.40
2022-07-29T21:10:56.169Z,22.30
2022-07-29T21:13:25.501Z,22.30
2022-07-29T21:15:59.090Z,22.30
2022-07-29T21:18:32.579Z,25.00
2022-07-29T21:21:02.237Z,22.20
2022-07-29T21:23:31.159Z,22.20
2022-07-29T21:25:59.826Z,22.20
2022-07-29T21:28:27.173Z,22.20
2022-07-29T21:30:58.461Z,22.20
2022-07-29T21:33:28.475Z,22.20
2022-07-29T21:36:35.437Z,22.20
2022-07-29T21:38:45.855Z,22.20
2022-07-29T21:41:15.363Z,22.10
2022-07-29T21:43:43.672Z,22.10
2022-07-29T21:46:14.462Z,22.00
2022-07-29T21:48:44.672Z,22.00
2022-07-29T21:51:13.108Z,22.00
2022-07-29T21:53:41.606Z,22.00
2022-07-29T21:56:14.502Z,21.90
2022-07-29T21:58:43.400Z,21.90
2022-07-29T22:01:13.098Z,21.90
2022-07-29T22:03:41.427Z,21.80
2022-07-29T22:06:16.655Z,21.80
2022-07-29T22:08:47.785Z,21.80
2022-07-29T22:11:16.139Z,21.80
2022-07-29T22:13:44.451Z,21.70
2022-07-29T22:16:15.017Z,21.70
2022-07-29T22:18:46.667Z,21.60
2022-07-29T22:21:15.468Z,21.60
2022-07-29T22:23:43.767Z,21.60
2022-07-29T22:26:12.321Z,21.50
2022-07-29T22:28:40.696Z,21.50
2022-07-29T22:31:09.085Z,21.50
2022-07-29T22:33:39.096Z,21.50
2022-07-29T22:36:08.231Z,21.40
2022-07-29T22:38:36.521Z,21.40
2022-07-29T22:41:05.073Z,21.30
2022-07-29T22:46:02.396Z,21.20
2022-07-29T22:48:31.245Z,21.10
2022-07-29T22:51:01.338Z,21.20
2022-07-29T22:53:29.699Z,21.20
2022-07-29T22:55:58.045Z,21.20
2022-07-29T22:58:26.503Z,21.10
2022-07-29T23:00:55.133Z,21.20
2022-07-29T23:03:23.799Z,21.10
2022-07-29T23:08:22.254Z,21.00
2022-07-29T23:10:50.628Z,21.00
2022-07-29T23:13:18.960Z,20.90
2022-07-29T23:15:47.371Z,20.80
2022-07-29T23:18:15.950Z,20.80
2022-07-29T23:20:45.424Z,20.80
2022-07-29T23:23:13.959Z,20.70
2022-07-29T23:25:43.853Z,20.70
2022-07-29T23:28:13.271Z,20.60
2022-07-29T23:30:42.107Z,20.60
2022-07-29T23:33:10.476Z,20.50
2022-07-29T23:35:38.805Z,20.50
2022-07-29T23:38:07.412Z,20.40
2022-07-29T23:40:35.821Z,20.40
2022-07-29T23:43:08.797Z,20.40
2022-07-29T23:45:44.469Z,20.30
2022-07-29T23:48:14.505Z,20.30
2022-07-29T23:50:43.321Z,20.20
2022-07-29T23:53:12.095Z,20.20
2022-07-29T23:55:40.439Z,20.20
2022-07-29T23:58:10.161Z,20.10
